Terminal Aerodrome Forecast
Issued by NWS Mt. Holly, NJ

Home | Current Version | Previous Version | Text Only | Print | Product List | Glossary On
Versions: 1 2 3 4 5 6 7 8 9 10 11 12 13 14 15 16 17 18 19
000
FTUS41 KPHI 070559
TAFILG
TAF
KILG 070559Z 0706/0806 01011KT 6SM -DZ BR OVC010
      TEMPO 0707/0711 3SM BR BKN008
     FM071300 34006KT P6SM SCT008 OVC013
     FM071500 31008KT P6SM BKN022
     FM071800 31011KT P6SM BKN035 BKN120
     FM080000 30005KT P6SM SCT150=

USA.gov is the U.S. government's official web portal to all federal, state and local government web resources and services.